Terminal Aerodrome Forecast
Issued by NWS Sioux Falls, SD

Home | Current Version | Previous Version | Graphics & Text | Print | Product List | Glossary On
Versions: 1 2 3 4 5 6 7 8 9 10 11 12 13 14 15 16 17
491
FTUS43 KFSD 281120
TAFFSD
TAF
KFSD 281120Z 2812/2912 04004KT P6SM SCT250
     FM281400 05008KT P6SM BKN150
     FM281700 05012KT P6SM BKN100
     FM290200 02008KT P6SM BKN080=

USA.gov is the U.S. government's official web portal to all federal, state and local government web resources and services.